sensor_id;sensor_type;location;lat;lon;timestamp;pressure;altitude;pressure_sealevel;temperature;humidity
25430;BME280;13360;48.152;-1.788;2023-04-06T00:01:00;102439.00;;;12.48;100.00
25430;BME280;13360;48.152;-1.788;2023-04-06T00:03:25;102442.88;;;12.47;100.00
25430;BME280;13360;48.152;-1.788;2023-04-06T00:05:51;102445.94;;;12.45;100.00
25430;BME280;13360;48.152;-1.788;2023-04-06T00:08:16;102449.53;;;12.46;100.00
25430;BME280;13360;48.152;-1.788;2023-04-06T00:10:42;102455.63;;;12.48;100.00
25430;BME280;13360;48.152;-1.788;2023-04-06T00:13:07;102442.88;;;12.47;100.00
25430;BME280;13360;48.152;-1.788;2023-04-06T00:15:33;102440.09;;;12.42;100.00
25430;BME280;13360;48.152;-1.788;2023-04-06T00:17:58;102447.56;;;12.41;100.00
25430;BME280;13360;48.152;-1.788;2023-04-06T00:20:23;102461.16;;;12.43;100.00
25430;BME280;13360;48.152;-1.788;2023-04-06T00:22:49;102452.84;;;12.43;100.00
25430;BME280;13360;48.152;-1.788;2023-04-06T00:25:15;102467.81;;;12.42;100.00
25430;BME280;13360;48.152;-1.788;2023-04-06T00:27:40;102483.31;;;12.38;100.00
25430;BME280;13360;48.152;-1.788;2023-04-06T00:30:06;102484.38;;;12.32;100.00
25430;BME280;13360;48.152;-1.788;2023-04-06T00:32:31;102494.63;;;12.31;100.00
25430;BME280;13360;48.152;-1.788;2023-04-06T00:34:57;102496.84;;;12.34;100.00
25430;BME280;13360;48.152;-1.788;2023-04-06T00:37:22;102502.97;;;12.36;100.00
25430;BME280;13360;48.152;-1.788;2023-04-06T00:39:48;102498.25;;;12.37;100.00
25430;BME280;13360;48.152;-1.788;2023-04-06T00:42:13;102500.47;;;12.35;100.00
25430;BME280;13360;48.152;-1.788;2023-04-06T00:44:42;102497.69;;;12.35;100.00
25430;BME280;13360;48.152;-1.788;2023-04-06T00:47:07;102505.19;;;12.34;100.00
25430;BME280;13360;48.152;-1.788;2023-04-06T00:49:33;102497.97;;;12.33;100.00
25430;BME280;13360;48.152;-1.788;2023-04-06T00:51:59;102517.34;;;12.33;100.00
25430;BME280;13360;48.152;-1.788;2023-04-06T00:54:24;102515.44;;;12.34;100.00
25430;BME280;13360;48.152;-1.788;2023-04-06T00:56:49;102507.38;;;12.32;100.00
25430;BME280;13360;48.152;-1.788;2023-04-06T00:59:15;102506.28;;;12.33;100.00
25430;BME280;13360;48.152;-1.788;2023-04-06T01:01:40;102508.75;;;12.30;100.00
25430;BME280;13360;48.152;-1.788;2023-04-06T01:04:05;102511.53;;;12.30;100.00
25430;BME280;13360;48.152;-1.788;2023-04-06T01:06:31;102514.28;;;12.30;100.00
25430;BME280;13360;48.152;-1.788;2023-04-06T01:08:56;102521.16;;;12.27;100.00
25430;BME280;13360;48.152;-1.788;2023-04-06T01:11:21;102524.78;;;12.28;100.00
25430;BME280;13360;48.152;-1.788;2023-04-06T01:13:46;102541.16;;;12.29;100.00
25430;BME280;13360;48.152;-1.788;2023-04-06T01:16:12;102548.88;;;12.27;100.00
25430;BME280;13360;48.152;-1.788;2023-04-06T01:18:37;102553.03;;;12.25;100.00
25430;BME280;13360;48.152;-1.788;2023-04-06T01:21:03;102559.13;;;12.27;100.00
25430;BME280;13360;48.152;-1.788;2023-04-06T01:23:28;102561.63;;;12.28;100.00
25430;BME280;13360;48.152;-1.788;2023-04-06T01:25:53;102559.38;;;12.25;100.00
25430;BME280;13360;48.152;-1.788;2023-04-06T01:28:19;102575.19;;;12.25;100.00
25430;BME280;13360;48.152;-1.788;2023-04-06T01:30:44;102568.22;;;12.22;100.00
25430;BME280;13360;48.152;-1.788;2023-04-06T01:33:09;102573.78;;;12.22;100.00
25430;BME280;13360;48.152;-1.788;2023-04-06T01:35:35;102572.09;;;12.21;100.00
25430;BME280;13360;48.152;-1.788;2023-04-06T01:38:01;102580.69;;;12.19;100.00
25430;BME280;13360;48.152;-1.788;2023-04-06T01:40:26;102579.53;;;12.15;100.00
25430;BME280;13360;48.152;-1.788;2023-04-06T01:42:52;102593.13;;;12.17;100.00
25430;BME280;13360;48.152;-1.788;2023-04-06T01:45:17;102592.28;;;12.16;100.00
25430;BME280;13360;48.152;-1.788;2023-04-06T01:47:42;102602.84;;;12.19;100.00
25430;BME280;13360;48.152;-1.788;2023-04-06T01:50:07;102601.19;;;12.18;100.00
25430;BME280;13360;48.152;-1.788;2023-04-06T01:52:33;102609.50;;;12.18;100.00
25430;BME280;13360;48.152;-1.788;2023-04-06T01:54:58;102619.47;;;12.19;100.00
25430;BME280;13360;48.152;-1.788;2023-04-06T01:57:23;102616.97;;;12.18;100.00
25430;BME280;13360;48.152;-1.788;2023-04-06T01:59:50;102614.47;;;12.16;100.00
25430;BME280;13360;48.152;-1.788;2023-04-06T02:02:15;102605.03;;;12.17;100.00
25430;BME280;13360;48.152;-1.788;2023-04-06T02:04:40;102600.59;;;12.16;100.00
25430;BME280;13360;48.152;-1.788;2023-04-06T02:07:06;102608.59;;;12.13;100.00
25430;BME280;13360;48.152;-1.788;2023-04-06T02:09:31;102615.00;;;12.13;100.00
25430;BME280;13360;48.152;-1.788;2023-04-06T02:11:56;102615.81;;;12.14;100.00
25430;BME280;13360;48.152;-1.788;2023-04-06T02:14:24;102614.16;;;12.13;100.00
25430;BME280;13360;48.152;-1.788;2023-04-06T02:16:49;102619.13;;;12.11;100.00
25430;BME280;13360;48.152;-1.788;2023-04-06T02:19:15;102623.25;;;12.08;100.00
25430;BME280;13360;48.152;-1.788;2023-04-06T02:21:40;102626.78;;;12.04;100.00
25430;BME280;13360;48.152;-1.788;2023-04-06T02:24:05;102627.88;;;12.03;100.00
25430;BME280;13360;48.152;-1.788;2023-04-06T02:26:31;102629.28;;;12.05;100.00
25430;BME280;13360;48.152;-1.788;2023-04-06T02:28:56;102623.75;;;12.05;100.00
25430;BME280;13360;48.152;-1.788;2023-04-06T02:31:21;102628.72;;;12.03;100.00
25430;BME280;13360;48.152;-1.788;2023-04-06T02:33:47;102629.28;;;12.05;100.00
25430;BME280;13360;48.152;-1.788;2023-04-06T02:36:12;102628.44;;;12.05;100.00
25430;BME280;13360;48.152;-1.788;2023-04-06T02:38:37;102646.75;;;12.06;100.00
25430;BME280;13360;48.152;-1.788;2023-04-06T02:41:02;102658.66;;;12.06;100.00
25430;BME280;13360;48.152;-1.788;2023-04-06T02:43:27;102660.31;;;12.07;100.00
25430;BME280;13360;48.152;-1.788;2023-04-06T02:45:53;102659.50;;;12.07;100.00
25430;BME280;13360;48.152;-1.788;2023-04-06T02:48:18;102670.56;;;12.07;100.00
25430;BME280;13360;48.152;-1.788;2023-04-06T02:50:43;102667.81;;;12.07;100.00
25430;BME280;13360;48.152;-1.788;2023-04-06T02:53:09;102669.50;;;12.08;100.00
25430;BME280;13360;48.152;-1.788;2023-04-06T02:55:34;102663.63;;;12.04;100.00
25430;BME280;13360;48.152;-1.788;2023-04-06T02:58:00;102661.94;;;12.03;100.00
25430;BME280;13360;48.152;-1.788;2023-04-06T03:00:25;102667.50;;;12.03;100.00
25430;BME280;13360;48.152;-1.788;2023-04-06T03:02:51;102673.03;;;12.03;100.00
25430;BME280;13360;48.152;-1.788;2023-04-06T03:05:16;102671.94;;;12.04;100.00
25430;BME280;13360;48.152;-1.788;2023-04-06T03:07:41;102674.69;;;12.04;100.00
25430;BME280;13360;48.152;-1.788;2023-04-06T03:10:07;102668.59;;;12.02;100.00
25430;BME280;13360;48.152;-1.788;2023-04-06T03:12:32;102671.34;;;12.02;100.00
25430;BME280;13360;48.152;-1.788;2023-04-06T03:14:57;102677.41;;;11.99;100.00
25430;BME280;13360;48.152;-1.788;2023-04-06T03:17:22;102671.88;;;11.99;100.00
25430;BME280;13360;48.152;-1.788;2023-04-06T03:19:48;102675.19;;;11.96;100.00
25430;BME280;13360;48.152;-1.788;2023-04-06T03:22:13;102679.03;;;11.95;100.00
25430;BME280;13360;48.152;-1.788;2023-04-06T03:24:38;102671.56;;;11.96;100.00
25430;BME280;13360;48.152;-1.788;2023-04-06T03:27:03;102677.41;;;11.99;100.00
25430;BME280;13360;48.152;-1.788;2023-04-06T03:29:29;102667.19;;;12.00;100.00
25430;BME280;13360;48.152;-1.788;2023-04-06T03:31:54;102664.41;;;12.00;100.00
25430;BME280;13360;48.152;-1.788;2023-04-06T03:34:20;102655.25;;;11.99;100.00
25430;BME280;13360;48.152;-1.788;2023-04-06T03:36:45;102652.19;;;11.96;100.00
25430;BME280;13360;48.152;-1.788;2023-04-06T03:39:10;102656.31;;;11.93;100.00
25430;BME280;13360;48.152;-1.788;2023-04-06T03:41:36;102659.91;;;11.94;100.00
25430;BME280;13360;48.152;-1.788;2023-04-06T03:44:01;102649.63;;;11.89;100.00
25430;BME280;13360;48.152;-1.788;2023-04-06T03:46:26;102665.97;;;11.90;100.00
25430;BME280;13360;48.152;-1.788;2023-04-06T03:48:52;102671.78;;;11.89;100.00
25430;BME280;13360;48.152;-1.788;2023-04-06T03:51:17;102664.56;;;11.88;100.00
25430;BME280;13360;48.152;-1.788;2023-04-06T03:53:42;102673.44;;;11.90;100.00
25430;BME280;13360;48.152;-1.788;2023-04-06T03:56:08;102685.09;;;11.92;100.00
25430;BME280;13360;48.152;-1.788;2023-04-06T03:58:33;102687.63;;;11.94;100.00
25430;BME280;13360;48.152;-1.788;2023-04-06T04:00:58;102687.88;;;11.92;100.00
25430;BME280;13360;48.152;-1.788;2023-04-06T04:03:23;102691.47;;;11.93;100.00
25430;BME280;13360;48.152;-1.788;2023-04-06T04:05:51;102680.09;;;11.89;100.00
25430;BME280;13360;48.152;-1.788;2023-04-06T04:08:16;102689.72;;;11.86;100.00
25430;BME280;13360;48.152;-1.788;2023-04-06T04:10:41;102680.09;;;11.89;100.00
25430;BME280;13360;48.152;-1.788;2023-04-06T04:13:06;102678.16;;;11.89;100.00
25430;BME280;13360;48.152;-1.788;2023-04-06T04:15:32;102676.06;;;11.80;100.00
25430;BME280;13360;48.152;-1.788;2023-04-06T04:17:57;102685.78;;;11.82;100.00
25430;BME280;13360;48.152;-1.788;2023-04-06T04:20:22;102684.97;;;11.82;100.00
25430;BME280;13360;48.152;-1.788;2023-04-06T04:22:47;102691.34;;;11.82;100.00
25430;BME280;13360;48.152;-1.788;2023-04-06T04:25:13;102694.94;;;11.83;100.00
25430;BME280;13360;48.152;-1.788;2023-04-06T04:27:38;102708.25;;;11.86;100.00
25430;BME280;13360;48.152;-1.788;2023-04-06T04:30:04;102706.09;;;11.88;100.00
25430;BME280;13360;48.152;-1.788;2023-04-06T04:32:30;102710.81;;;11.87;100.00
25430;BME280;13360;48.152;-1.788;2023-04-06T04:34:56;102711.88;;;11.86;100.00
25430;BME280;13360;48.152;-1.788;2023-04-06T04:37:21;102714.16;;;11.89;100.00
25430;BME280;13360;48.152;-1.788;2023-04-06T04:39:46;102723.03;;;11.92;100.00
25430;BME280;13360;48.152;-1.788;2023-04-06T04:42:12;102715.56;;;11.92;100.00
25430;BME280;13360;48.152;-1.788;2023-04-06T04:44:37;102724.03;;;11.85;100.00
25430;BME280;13360;48.152;-1.788;2023-04-06T04:47:02;102727.06;;;11.84;100.00
25430;BME280;13360;48.152;-1.788;2023-04-06T04:49:27;102723.22;;;11.85;100.00
25430;BME280;13360;48.152;-1.788;2023-04-06T04:51:53;102730.09;;;11.82;100.00
25430;BME280;13360;48.152;-1.788;2023-04-06T04:54:18;102719.03;;;11.82;100.00
25430;BME280;13360;48.152;-1.788;2023-04-06T04:56:44;102716.09;;;11.72;100.00
25430;BME280;13360;48.152;-1.788;2023-04-06T04:59:10;102728.53;;;11.70;100.00
25430;BME280;13360;48.152;-1.788;2023-04-06T05:01:35;102737.34;;;11.67;100.00
25430;BME280;13360;48.152;-1.788;2023-04-06T05:04:00;102748.50;;;11.72;100.00
25430;BME280;13360;48.152;-1.788;2023-04-06T05:06:25;102752.69;;;11.74;100.00
25430;BME280;13360;48.152;-1.788;2023-04-06T05:08:51;102772.88;;;11.75;100.00
25430;BME280;13360;48.152;-1.788;2023-04-06T05:11:16;102772.88;;;11.75;100.00
25430;BME280;13360;48.152;-1.788;2023-04-06T05:13:41;102770.56;;;11.67;100.00
25430;BME280;13360;48.152;-1.788;2023-04-06T05:16:07;102782.22;;;11.69;100.00
25430;BME280;13360;48.152;-1.788;2023-04-06T05:18:32;102780.03;;;11.71;100.00
25430;BME280;13360;48.152;-1.788;2023-04-06T05:20:57;102792.28;;;11.75;100.00
25430;BME280;13360;48.152;-1.788;2023-04-06T05:23:23;102797.56;;;11.76;100.00
25430;BME280;13360;48.152;-1.788;2023-04-06T05:25:48;102806.69;;;11.77;100.00
25430;BME280;13360;48.152;-1.788;2023-04-06T05:28:14;102816.69;;;11.78;100.00
25430;BME280;13360;48.152;-1.788;2023-04-06T05:30:40;102818.38;;;11.79;100.00
25430;BME280;13360;48.152;-1.788;2023-04-06T05:33:06;102822.22;;;11.78;100.00
25430;BME280;13360;48.152;-1.788;2023-04-06T05:35:32;102831.88;;;11.75;100.00
25430;BME280;13360;48.152;-1.788;2023-04-06T05:37:57;102841.84;;;11.76;100.00
25430;BME280;13360;48.152;-1.788;2023-04-06T05:40:22;102844.63;;;11.76;100.00
25430;BME280;13360;48.152;-1.788;2023-04-06T05:42:47;102845.47;;;11.77;100.00
25430;BME280;13360;48.152;-1.788;2023-04-06T05:45:14;102852.66;;;11.78;100.00
25430;BME280;13360;48.152;-1.788;2023-04-06T05:47:42;102849.06;;;11.77;100.00
25430;BME280;13360;48.152;-1.788;2023-04-06T05:50:07;102846.06;;;11.79;100.00
25430;BME280;13360;48.152;-1.788;2023-04-06T05:52:33;102838.81;;;11.78;100.00
25430;BME280;13360;48.152;-1.788;2023-04-06T05:54:58;102849.31;;;11.76;100.00
25430;BME280;13360;48.152;-1.788;2023-04-06T05:57:23;102844.28;;;11.73;100.00
25430;BME280;13360;48.152;-1.788;2023-04-06T05:59:48;102845.91;;;11.69;100.00
25430;BME280;13360;48.152;-1.788;2023-04-06T06:02:14;102847.00;;;11.68;100.00
25430;BME280;13360;48.152;-1.788;2023-04-06T06:04:39;102852.84;;;11.71;100.00
25430;BME280;13360;48.152;-1.788;2023-04-06T06:07:05;102851.75;;;11.72;100.00
25430;BME280;13360;48.152;-1.788;2023-04-06T06:09:30;102878.94;;;11.75;100.00
25430;BME280;13360;48.152;-1.788;2023-04-06T06:11:55;102883.13;;;11.78;100.00
25430;BME280;13360;48.152;-1.788;2023-04-06T06:14:21;102888.66;;;11.78;100.00
25430;BME280;13360;48.152;-1.788;2023-04-06T06:16:47;102898.69;;;11.79;100.00
25430;BME280;13360;48.152;-1.788;2023-04-06T06:19:12;102911.69;;;11.78;100.00
25430;BME280;13360;48.152;-1.788;2023-04-06T06:21:37;102914.19;;;11.80;100.00
25430;BME280;13360;48.152;-1.788;2023-04-06T06:24:02;102919.75;;;11.80;100.00
25430;BME280;13360;48.152;-1.788;2023-04-06T06:26:28;102927.78;;;11.81;100.00
25430;BME280;13360;48.152;-1.788;2023-04-06T06:28:53;102931.72;;;11.85;100.00
25430;BME280;13360;48.152;-1.788;2023-04-06T06:31:18;102932.34;;;11.87;100.00
25430;BME280;13360;48.152;-1.788;2023-04-06T06:33:47;102938.22;;;11.91;100.00
25430;BME280;13360;48.152;-1.788;2023-04-06T06:36:15;102934.94;;;11.94;100.00
25430;BME280;13360;48.152;-1.788;2023-04-06T06:38:40;102941.88;;;11.97;100.00
25430;BME280;13360;48.152;-1.788;2023-04-06T06:41:05;102932.81;;;12.01;100.00
25430;BME280;13360;48.152;-1.788;2023-04-06T06:43:31;102930.63;;;12.03;100.00
25430;BME280;13360;48.152;-1.788;2023-04-06T06:45:56;102945.66;;;12.07;100.00
25430;BME280;13360;48.152;-1.788;2023-04-06T06:48:21;102935.44;;;12.08;100.00
25430;BME280;13360;48.152;-1.788;2023-04-06T06:50:49;102956.31;;;12.15;100.00
25430;BME280;13360;48.152;-1.788;2023-04-06T06:53:15;102952.00;;;12.25;100.00
25430;BME280;13360;48.152;-1.788;2023-04-06T06:55:40;102962.34;;;12.29;100.00
25430;BME280;13360;48.152;-1.788;2023-04-06T06:58:05;102954.03;;;12.29;100.00
25430;BME280;13360;48.152;-1.788;2023-04-06T07:00:31;102943.69;;;12.25;100.00
25430;BME280;13360;48.152;-1.788;2023-04-06T07:02:57;102939.50;;;12.22;100.00
25430;BME280;13360;48.152;-1.788;2023-04-06T07:05:22;102953.63;;;12.20;100.00
25430;BME280;13360;48.152;-1.788;2023-04-06T07:07:47;102957.47;;;12.19;100.00
25430;BME280;13360;48.152;-1.788;2023-04-06T07:10:12;102979.13;;;12.23;100.00
25430;BME280;13360;48.152;-1.788;2023-04-06T07:12:38;102993.06;;;12.28;100.00
25430;BME280;13360;48.152;-1.788;2023-04-06T07:15:03;102998.13;;;12.31;100.00
25430;BME280;13360;48.152;-1.788;2023-04-06T07:17:28;102991.38;;;12.27;100.00
25430;BME280;13360;48.152;-1.788;2023-04-06T07:19:54;103001.88;;;12.25;100.00
25430;BME280;13360;48.152;-1.788;2023-04-06T07:22:19;102998.53;;;12.23;100.00
25430;BME280;13360;48.152;-1.788;2023-04-06T07:24:44;102999.63;;;12.21;100.00
25430;BME280;13360;48.152;-1.788;2023-04-06T07:27:09;102997.94;;;12.20;100.00
25430;BME280;13360;48.152;-1.788;2023-04-06T07:29:35;102997.69;;;12.22;100.00
25430;BME280;13360;48.152;-1.788;2023-04-06T07:32:00;103006.25;;;12.20;100.00
25430;BME280;13360;48.152;-1.788;2023-04-06T07:34:25;103025.66;;;12.20;100.00
25430;BME280;13360;48.152;-1.788;2023-04-06T07:36:51;103020.63;;;12.17;100.00
25430;BME280;13360;48.152;-1.788;2023-04-06T07:39:17;103041.38;;;12.15;100.00
25430;BME280;13360;48.152;-1.788;2023-04-06T07:41:43;103064.63;;;12.14;100.00
25430;BME280;13360;48.152;-1.788;2023-04-06T07:44:08;103071.06;;;12.19;100.00
25430;BME280;13360;48.152;-1.788;2023-04-06T07:46:33;103081.16;;;12.26;100.00
25430;BME280;13360;48.152;-1.788;2023-04-06T07:48:59;103090.16;;;12.33;100.00
25430;BME280;13360;48.152;-1.788;2023-04-06T07:51:26;103097.19;;;12.40;100.00
25430;BME280;13360;48.152;-1.788;2023-04-06T07:53:51;103113.66;;;12.47;100.00
25430;BME280;13360;48.152;-1.788;2023-04-06T07:56:16;103118.72;;;12.50;100.00
25430;BME280;13360;48.152;-1.788;2023-04-06T07:58:42;103122.56;;;12.49;100.00
25430;BME280;13360;48.152;-1.788;2023-04-06T08:01:07;103127.63;;;12.52;100.00
25430;BME280;13360;48.152;-1.788;2023-04-06T08:03:35;103128.47;;;12.52;100.00
25430;BME280;13360;48.152;-1.788;2023-04-06T08:06:01;103151.47;;;12.53;100.00
25430;BME280;13360;48.152;-1.788;2023-04-06T08:08:27;103160.88;;;12.52;100.00
25430;BME280;13360;48.152;-1.788;2023-04-06T08:10:52;103163.06;;;12.50;100.00
25430;BME280;13360;48.152;-1.788;2023-04-06T08:13:17;103178.38;;;12.52;100.00
25430;BME280;13360;48.152;-1.788;2023-04-06T08:15:43;103193.66;;;12.55;100.00
25430;BME280;13360;48.152;-1.788;2023-04-06T08:18:08;103206.41;;;12.56;100.00
25430;BME280;13360;48.152;-1.788;2023-04-06T08:20:34;103225.56;;;12.58;100.00
25430;BME280;13360;48.152;-1.788;2023-04-06T08:22:59;103240.88;;;12.60;100.00
25430;BME280;13360;48.152;-1.788;2023-04-06T08:25:25;103247.00;;;12.62;100.00
25430;BME280;13360;48.152;-1.788;2023-04-06T08:27:50;103256.50;;;12.66;100.00
25430;BME280;13360;48.152;-1.788;2023-04-06T08:30:15;103263.25;;;12.70;100.00
25430;BME280;13360;48.152;-1.788;2023-04-06T08:32:41;103268.81;;;12.70;100.00
25430;BME280;13360;48.152;-1.788;2023-04-06T08:35:07;103279.88;;;12.70;100.00
25430;BME280;13360;48.152;-1.788;2023-04-06T08:37:32;103287.25;;;12.65;100.00
25430;BME280;13360;48.152;-1.788;2023-04-06T08:39:58;103286.41;;;12.64;100.00
25430;BME280;13360;48.152;-1.788;2023-04-06T08:42:24;103300.38;;;12.69;100.00
25430;BME280;13360;48.152;-1.788;2023-04-06T08:44:51;103317.28;;;12.85;100.00
25430;BME280;13360;48.152;-1.788;2023-04-06T08:47:17;103321.63;;;12.92;100.00
25430;BME280;13360;48.152;-1.788;2023-04-06T08:49:42;103316.16;;;12.97;100.00
25430;BME280;13360;48.152;-1.788;2023-04-06T08:52:09;103317.56;;;13.00;100.00
25430;BME280;13360;48.152;-1.788;2023-04-06T08:54:35;103323.22;;;13.05;100.00
25430;BME280;13360;48.152;-1.788;2023-04-06T08:57:00;103287.72;;;13.07;100.00
25430;BME280;13360;48.152;-1.788;2023-04-06T08:59:26;103289.56;;;13.01;100.00
25430;BME280;13360;48.152;-1.788;2023-04-06T09:01:52;103242.59;;;12.95;100.00
25430;BME280;13360;48.152;-1.788;2023-04-06T09:04:19;103203.75;;;12.95;100.00
25430;BME280;13360;48.152;-1.788;2023-04-06T09:06:44;103197.50;;;12.88;100.00
25430;BME280;13360;48.152;-1.788;2023-04-06T09:09:09;103221.22;;;12.78;100.00
25430;BME280;13360;48.152;-1.788;2023-04-06T09:11:44;103273.00;;;12.73;100.00
25430;BME280;13360;48.152;-1.788;2023-04-06T09:14:10;103274.81;;;12.67;100.00
25430;BME280;13360;48.152;-1.788;2023-04-06T09:16:42;103246.25;;;12.67;100.00
25430;BME280;13360;48.152;-1.788;2023-04-06T09:19:08;103246.94;;;12.74;100.00
25430;BME280;13360;48.152;-1.788;2023-04-06T09:21:34;103255.00;;;12.75;100.00
25430;BME280;13360;48.152;-1.788;2023-04-06T09:24:00;103242.75;;;12.71;100.00
25430;BME280;13360;48.152;-1.788;2023-04-06T09:26:26;103201.88;;;12.67;100.00
25430;BME280;13360;48.152;-1.788;2023-04-06T09:28:58;103203.09;;;12.71;100.00
25430;BME280;13360;48.152;-1.788;2023-04-06T09:31:32;103183.16;;;12.74;100.00
25430;BME280;13360;48.152;-1.788;2023-04-06T09:33:58;103185.16;;;12.78;100.00
25430;BME280;13360;48.152;-1.788;2023-04-06T09:36:31;103206.34;;;12.85;100.00
25430;BME280;13360;48.152;-1.788;2023-04-06T09:39:01;103227.63;;;12.96;100.00
25430;BME280;13360;48.152;-1.788;2023-04-06T09:43:52;103301.34;;;12.92;100.00
25430;BME280;13360;48.152;-1.788;2023-04-06T09:46:26;103321.25;;;12.89;100.00
25430;BME280;13360;48.152;-1.788;2023-04-06T09:48:51;103322.94;;;12.90;100.00
25430;BME280;13360;48.152;-1.788;2023-04-06T09:51:17;103331.94;;;12.97;100.00
25430;BME280;13360;48.152;-1.788;2023-04-06T09:53:43;103325.91;;;13.00;100.00
25430;BME280;13360;48.152;-1.788;2023-04-06T09:56:11;103323.66;;;13.13;100.00
25430;BME280;13360;48.152;-1.788;2023-04-06T09:58:38;103317.28;;;13.30;100.00
25430;BME280;13360;48.152;-1.788;2023-04-06T10:01:15;103378.34;;;13.47;100.00
25430;BME280;13360;48.152;-1.788;2023-04-06T10:06:25;103443.97;;;14.42;100.00
25430;BME280;13360;48.152;-1.788;2023-04-06T10:08:52;103520.56;;;14.66;100.00
25430;BME280;13360;48.152;-1.788;2023-04-06T10:11:20;103517.06;;;14.37;100.00
25430;BME280;13360;48.152;-1.788;2023-04-06T10:13:46;103472.84;;;14.19;100.00
25430;BME280;13360;48.152;-1.788;2023-04-06T10:16:12;103437.06;;;14.06;100.00
25430;BME280;13360;48.152;-1.788;2023-04-06T10:18:38;103441.78;;;14.05;100.00
25430;BME280;13360;48.152;-1.788;2023-04-06T10:21:08;103402.88;;;14.05;100.00
25430;BME280;13360;48.152;-1.788;2023-04-06T10:23:36;103368.69;;;14.04;100.00
25430;BME280;13360;48.152;-1.788;2023-04-06T10:26:03;103365.91;;;14.04;100.00
25430;BME280;13360;48.152;-1.788;2023-04-06T10:28:32;103384.91;;;14.13;100.00
25430;BME280;13360;48.152;-1.788;2023-04-06T10:30:58;103404.06;;;14.31;100.00
25430;BME280;13360;48.152;-1.788;2023-04-06T10:33:24;103442.03;;;14.42;100.00
25430;BME280;13360;48.152;-1.788;2023-04-06T10:35:49;103460.44;;;14.43;100.00
25430;BME280;13360;48.152;-1.788;2023-04-06T10:38:15;103438.31;;;14.37;100.00
25430;BME280;13360;48.152;-1.788;2023-04-06T10:40:44;103432.44;;;14.33;100.00
25430;BME280;13360;48.152;-1.788;2023-04-06T10:43:12;103446.28;;;14.28;100.00
25430;BME280;13360;48.152;-1.788;2023-04-06T10:45:38;103460.06;;;14.18;100.00
25430;BME280;13360;48.152;-1.788;2023-04-06T10:48:13;103458.69;;;14.20;100.00
25430;BME280;13360;48.152;-1.788;2023-04-06T10:50:39;103466.19;;;14.20;100.00
25430;BME280;13360;48.152;-1.788;2023-04-06T10:53:05;103464.50;;;14.19;100.00
25430;BME280;13360;48.152;-1.788;2023-04-06T10:55:31;103438.56;;;14.13;100.00
25430;BME280;13360;48.152;-1.788;2023-04-06T10:57:56;103436.56;;;14.09;100.00
25430;BME280;13360;48.152;-1.788;2023-04-06T11:00:22;103459.94;;;14.13;100.00
25430;BME280;13360;48.152;-1.788;2023-04-06T11:02:48;103482.09;;;14.24;100.00
25430;BME280;13360;48.152;-1.788;2023-04-06T11:05:13;103482.50;;;14.33;100.00
25430;BME280;13360;48.152;-1.788;2023-04-06T11:07:39;103508.56;;;14.44;100.00
25430;BME280;13360;48.152;-1.788;2023-04-06T11:10:05;103543.94;;;14.48;100.00
25430;BME280;13360;48.152;-1.788;2023-04-06T11:12:30;103530.69;;;14.55;100.00
25430;BME280;13360;48.152;-1.788;2023-04-06T11:14:59;103518.41;;;14.51;100.00
25430;BME280;13360;48.152;-1.788;2023-04-06T11:17:29;103524.63;;;14.58;100.00
25430;BME280;13360;48.152;-1.788;2023-04-06T11:19:55;103533.16;;;14.74;100.00
25430;BME280;13360;48.152;-1.788;2023-04-06T11:22:21;103528.84;;;14.83;100.00
25430;BME280;13360;48.152;-1.788;2023-04-06T11:24:46;103550.47;;;14.98;100.00
25430;BME280;13360;48.152;-1.788;2023-04-06T11:27:16;103509.63;;;15.03;100.00
25430;BME280;13360;48.152;-1.788;2023-04-06T11:29:56;103445.03;;;15.01;100.00
25430;BME280;13360;48.152;-1.788;2023-04-06T11:32:21;103398.22;;;14.98;100.00
25430;BME280;13360;48.152;-1.788;2023-04-06T11:34:47;103347.50;;;14.91;100.00
25430;BME280;13360;48.152;-1.788;2023-04-06T11:37:12;103319.09;;;14.89;100.00
25430;BME280;13360;48.152;-1.788;2023-04-06T11:39:38;103286.25;;;14.86;100.00
25430;BME280;13360;48.152;-1.788;2023-04-06T11:42:05;103265.69;;;14.92;100.00
25430;BME280;13360;48.152;-1.788;2023-04-06T11:44:37;103254.28;;;14.93;100.00
25430;BME280;13360;48.152;-1.788;2023-04-06T11:47:08;103233.41;;;14.91;100.00
25430;BME280;13360;48.152;-1.788;2023-04-06T11:49:36;103217.00;;;14.94;100.00
25430;BME280;13360;48.152;-1.788;2023-04-06T11:52:02;103203.16;;;15.00;100.00
25430;BME280;13360;48.152;-1.788;2023-04-06T11:54:33;103188.44;;;15.04;100.00
25430;BME280;13360;48.152;-1.788;2023-04-06T11:56:59;103145.50;;;14.95;100.00
25430;BME280;13360;48.152;-1.788;2023-04-06T11:59:25;103107.59;;;14.89;100.00
25430;BME280;13360;48.152;-1.788;2023-04-06T12:01:52;103097.31;;;14.89;100.00
25430;BME280;13360;48.152;-1.788;2023-04-06T12:04:18;103086.19;;;14.89;100.00
25430;BME280;13360;48.152;-1.788;2023-04-06T12:06:43;103072.00;;;14.91;100.00
25430;BME280;13360;48.152;-1.788;2023-04-06T12:09:08;103061.72;;;14.97;100.00
25430;BME280;13360;48.152;-1.788;2023-04-06T12:11:34;103051.47;;;15.02;100.00
25430;BME280;13360;48.152;-1.788;2023-04-06T12:13:59;103042.59;;;15.10;100.00
25430;BME280;13360;48.152;-1.788;2023-04-06T12:16:26;103025.91;;;15.15;100.00
25430;BME280;13360;48.152;-1.788;2023-04-06T12:18:51;102971.34;;;15.14;100.00
25430;BME280;13360;48.152;-1.788;2023-04-06T12:21:17;102940.16;;;15.12;100.00
25430;BME280;13360;48.152;-1.788;2023-04-06T12:23:42;102890.63;;;15.09;100.00
25430;BME280;13360;48.152;-1.788;2023-04-06T12:26:07;102860.00;;;15.04;100.00
25430;BME280;13360;48.152;-1.788;2023-04-06T12:28:32;102836.03;;;14.98;100.00